Time;durP1;ratioP1;P1;durP2;ratioP2;P2;SDS_P1;SDS_P2;PMS_P1;PMS_P2;Temp;Humidity;BMP_temperature;BMP_pressure;BME280_temperature;BME280_humidity;BME280_pressure;Samples;Min_cycle;Max_cycle;Signal;HPM_P1;HPM_P2
2022/03/17 00:01:32;;;;;;;30.07;23.87;;;;;;;8.22;88.26;153471.44;5013219;28;20447;-79
2022/03/17 00:04:08;;;;;;;29.50;23.63;;;;;;;8.27;87.83;153483.09;5034707;28;20440;-79
2022/03/17 00:06:44;;;;;;;30.13;22.30;;;;;;;8.23;88.07;153472.72;5028114;28;20516;-80
2022/03/17 00:09:19;;;;;;;28.13;24.37;;;;;;;8.18;88.21;153461.06;5009716;28;20483;-80
2022/03/17 00:11:56;;;;;;;29.13;24.27;;;;;;;8.17;88.18;153458.50;5039647;28;20483;-80
2022/03/17 00:14:32;;;;;;;29.53;23.17;;;;;;;8.14;88.10;153450.75;5001107;28;20456;-80
2022/03/17 00:17:08;;;;;;;26.07;22.27;;;;;;;8.13;87.99;153446.88;5032275;28;20446;-80
2022/03/17 00:19:45;;;;;;;29.63;24.10;;;;;;;8.17;88.15;153458.50;5036681;28;20443;-79
2022/03/17 00:22:21;;;;;;;28.83;23.20;;;;;;;8.07;87.90;153432.66;5034088;28;20443;-79
2022/03/17 00:24:57;;;;;;;33.33;25.07;;;;;;;8.05;88.43;153426.22;5033060;28;20518;-79
2022/03/17 00:27:34;;;;;;;27.60;22.83;;;;;;;8.11;87.90;153441.69;4993558;28;20569;-79
2022/03/17 00:30:11;;;;;;;30.30;23.07;;;;;;;8.13;87.64;153448.13;4999513;28;20458;-79
2022/03/17 00:32:46;;;;;;;34.10;24.40;;;;;;;8.04;87.93;153424.91;5037885;28;20447;-79
2022/03/17 00:35:38;;;;;;;30.87;23.47;;;;;;;8.16;87.12;153455.91;5033095;28;20543;-79
2022/03/17 00:38:16;;;;;;;33.13;24.67;;;;;;;8.04;87.36;153424.91;5038613;28;20455;-80
2022/03/17 00:40:52;;;;;;;32.83;24.80;;;;;;;8.10;87.46;153440.38;5013352;28;20554;-79
2022/03/17 00:43:29;;;;;;;32.90;25.27;;;;;;;7.96;88.12;153405.53;5040913;28;20538;-79
2022/03/17 00:46:04;;;;;;;29.53;25.30;;;;;;;7.90;88.84;153388.72;5032128;28;20564;-79
2022/03/17 00:48:39;;;;;;;31.17;23.73;;;;;;;7.95;88.01;153402.94;5015770;28;20562;-79
2022/03/17 00:51:15;;;;;;;28.10;23.47;;;;;;;7.91;88.22;153391.31;5034869;28;20518;-79
2022/03/17 00:53:51;;;;;;;31.20;23.70;;;;;;;7.95;87.98;153402.94;5032886;28;20450;-79
2022/03/17 00:56:26;;;;;;;29.87;24.70;;;;;;;7.98;87.53;153410.69;5035293;28;20479;-79
2022/03/17 00:59:03;;;;;;;29.07;23.57;;;;;;;8.20;85.98;153464.97;5015128;28;20483;-79
2022/03/17 01:01:38;;;;;;;29.07;22.63;;;;;;;8.07;86.56;153432.66;5013387;28;20439;-79
2022/03/17 01:04:14;;;;;;;33.40;24.90;;;;;;;8.11;85.91;153443.00;5023462;28;20444;-79
2022/03/17 01:06:49;;;;;;;32.27;25.20;;;;;;;8.00;86.55;153414.53;5016298;28;20452;-79
2022/03/17 01:09:28;;;;;;;32.33;24.40;;;;;;;7.98;86.92;153410.69;5028141;28;20817;-79
2022/03/17 01:12:04;;;;;;;28.53;23.83;;;;;;;8.01;86.14;153417.16;5032687;28;20439;-79
2022/03/17 01:14:41;;;;;;;32.53;24.97;;;;;;;7.93;86.30;153396.47;5026571;28;20902;-79
2022/03/17 01:17:16;;;;;;;27.73;23.40;;;;;;;7.90;86.80;153388.72;5010630;28;20490;-79
2022/03/17 01:19:52;;;;;;;29.53;25.53;;;;;;;7.92;86.34;153395.19;5029474;28;20431;-79
2022/03/17 01:22:27;;;;;;;31.27;24.70;;;;;;;7.84;86.71;153373.19;5013321;28;20550;-79
2022/03/17 01:25:04;;;;;;;37.97;27.00;;;;;;;7.84;87.14;153373.19;5036092;28;20436;-79
2022/03/17 01:27:39;;;;;;;30.63;25.30;;;;;;;7.98;86.30;153409.41;5037886;28;20474;-79
2022/03/17 01:30:17;;;;;;;40.27;26.20;;;;;;;7.81;86.80;153366.75;5026160;28;20482;-79
2022/03/17 01:32:52;;;;;;;31.43;23.70;;;;;;;8.00;86.30;153414.53;5021886;28;20479;-79
2022/03/17 01:35:28;;;;;;;30.33;23.93;;;;;;;7.93;86.06;153396.47;5027697;28;20452;-79
2022/03/17 01:38:03;;;;;;;32.50;24.00;;;;;;;7.87;86.69;153382.25;5012671;28;20440;-79
2022/03/17 01:40:39;;;;;;;30.10;23.13;;;;;;;7.89;86.70;153387.41;5011608;28;20467;-79
2022/03/17 01:43:14;;;;;;;28.77;23.07;;;;;;;7.94;86.54;153399.09;5036772;28;20475;-79
2022/03/17 01:45:53;;;;;;;30.23;24.67;;;;;;;7.87;86.57;153382.25;5010216;28;20472;-79
2022/03/17 01:48:29;;;;;;;35.53;24.10;;;;;;;7.70;87.61;153338.38;5031179;28;20812;-79
2022/03/17 01:51:04;;;;;;;31.13;23.17;;;;;;;7.76;87.71;153352.53;5013253;28;20454;-79
2022/03/17 01:53:40;;;;;;;32.50;23.93;;;;;;;7.79;86.89;153361.59;5026152;28;20452;-79
2022/03/17 01:56:16;;;;;;;34.00;25.33;;;;;;;7.91;86.74;153391.31;5025464;28;20460;-79
2022/03/17 01:58:52;;;;;;;30.83;24.60;;;;;;;7.75;87.39;153351.28;5031697;28;20444;-79
2022/03/17 02:01:29;;;;;;;31.90;25.70;;;;;;;7.72;87.63;153343.53;5030668;28;20468;-79
2022/03/17 02:04:04;;;;;;;34.97;25.53;;;;;;;7.70;87.26;153338.38;5009187;28;20447;-79
2022/03/17 02:06:42;;;;;;;33.17;25.40;;;;;;;7.65;87.64;153324.16;5035508;28;20454;-79
2022/03/17 02:09:17;;;;;;;35.20;24.73;;;;;;;7.65;87.85;153325.41;5032232;28;20827;-79
2022/03/17 02:14:48;;;;;;;34.30;25.70;;;;;;;7.65;87.98;153324.16;5029140;28;20974;-79
2022/03/17 02:17:27;;;;;;;33.67;26.27;;;;;;;7.57;88.39;153303.47;5026081;28;20462;-79
2022/03/17 02:20:04;;;;;;;33.07;25.40;;;;;;;7.53;88.25;153294.44;5038247;28;20443;-79
2022/03/17 02:22:43;;;;;;;33.30;26.57;;;;;;;7.40;91.14;153260.84;5012895;28;20458;-79
2022/03/17 02:25:36;;;;;;;30.30;24.10;;;;;;;7.31;90.31;153238.88;5036172;28;20712;-80
2022/03/17 02:28:12;;;;;;;35.30;26.63;;;;;;;7.31;90.42;153238.88;5025206;28;20615;-79
2022/03/17 02:30:48;;;;;;;32.07;25.67;;;;;;;7.40;89.39;153259.53;5013642;28;20475;-79
2022/03/17 02:33:24;;;;;;;32.37;25.37;;;;;;;7.39;89.71;153258.25;5011617;28;20458;-79
2022/03/17 02:36:00;;;;;;;34.37;25.20;;;;;;;7.41;89.56;153262.16;5033447;28;20446;-80
2022/03/17 02:38:36;;;;;;;32.83;23.80;;;;;;;7.42;89.17;153264.69;5031695;28;20448;-79
2022/03/17 02:41:21;;;;;;;30.57;24.57;;;;;;;7.46;88.89;153275.06;5033966;28;20534;-79
2022/03/17 02:43:57;;;;;;;34.57;25.90;;;;;;;7.63;88.17;153318.94;5025588;28;20452;-79
2022/03/17 02:46:32;;;;;;;38.43;25.40;;;;;;;7.52;88.67;153291.81;5026881;28;20491;-80
2022/03/17 02:49:08;;;;;;;32.10;24.30;;;;;;;7.65;88.31;153324.16;5035283;28;20448;-79
2022/03/17 02:51:46;;;;;;;31.07;22.93;;;;;;;7.70;88.27;153337.06;5013272;28;20444;-79
2022/03/17 02:54:22;;;;;;;34.30;26.30;;;;;;;7.46;89.07;153276.34;5034726;28;20942;-79
2022/03/17 02:56:59;;;;;;;32.73;25.10;;;;;;;7.72;88.66;153342.22;5011678;28;20443;-79
2022/03/17 02:59:34;;;;;;;32.63;24.67;;;;;;;7.69;88.53;153334.47;5030727;28;20451;-79
2022/03/17 03:02:10;;;;;;;31.60;24.30;;;;;;;7.65;88.78;153324.16;5030186;28;20443;-79
2022/03/17 03:04:45;;;;;;;36.33;24.37;;;;;;;7.59;88.68;153308.63;5028252;28;20455;-79
2022/03/17 03:07:21;;;;;;;31.80;24.93;;;;;;;7.62;89.01;153316.41;5028362;28;20455;-79
2022/03/17 03:09:56;;;;;;;30.97;24.53;;;;;;;7.74;88.71;153347.38;5036150;28;20439;-79
2022/03/17 03:12:33;;;;;;;31.87;23.93;;;;;;;7.63;88.98;153318.94;5031786;28;20463;-79
2022/03/17 03:15:09;;;;;;;32.77;24.20;;;;;;;7.66;89.26;153326.72;5027844;28;20961;-79
2022/03/17 03:17:45;;;;;;;32.10;24.00;;;;;;;7.66;89.06;153326.72;5025716;28;20448;-80
2022/03/17 03:20:20;;;;;;;32.77;24.73;;;;;;;7.48;90.21;153281.50;5028543;28;20443;-79
2022/03/17 03:22:57;;;;;;;31.40;24.37;;;;;;;7.55;89.88;153298.28;5025715;28;20463;-79
2022/03/17 03:25:32;;;;;;;33.10;24.13;;;;;;;7.53;89.75;153293.13;5031630;28;20439;-79
2022/03/17 03:28:10;;;;;;;32.80;23.40;;;;;;;7.55;89.46;153298.28;5028614;28;20815;-79
2022/03/17 03:30:47;;;;;;;34.83;24.10;;;;;;;7.58;89.91;153306.03;5024647;28;20437;-79
2022/03/17 03:33:23;;;;;;;33.07;24.80;;;;;;;7.72;89.21;153343.53;5031629;28;20448;-79
2022/03/17 03:38:51;;;;;;;35.30;23.97;;;;;;;7.54;88.94;153295.72;5026839;28;20476;-79
2022/03/17 03:41:27;;;;;;;33.70;24.47;;;;;;;7.60;88.79;153311.25;5013708;28;20811;-79
2022/03/17 03:44:04;;;;;;;31.27;23.60;;;;;;;7.50;89.29;153285.38;5037350;28;21017;-79
2022/03/17 03:46:40;;;;;;;35.60;23.93;;;;;;;7.56;88.27;153300.88;5012092;28;20782;-79
2022/03/17 03:49:16;;;;;;;31.40;25.63;;;;;;;7.59;88.02;153309.94;5007010;28;21044;-79
2022/03/17 03:51:52;;;;;;;32.43;24.70;;;;;;;7.52;87.91;153290.56;5030226;28;20789;-79
2022/03/17 03:54:27;;;;;;;31.00;23.00;;;;;;;7.36;88.52;153251.78;5026233;28;20452;-79
2022/03/17 03:57:04;;;;;;;35.30;24.07;;;;;;;7.42;88.36;153264.69;5021181;28;20462;-79
2022/03/17 03:59:42;;;;;;;32.83;24.97;;;;;;;7.40;88.05;153260.84;5019871;28;20939;-79
2022/03/17 04:02:17;;;;;;;37.03;26.33;;;;;;;7.38;88.15;153255.69;5027864;28;20455;-79
2022/03/17 04:04:53;;;;;;;32.70;24.10;;;;;;;7.41;87.90;153262.16;5010557;28;21119;-79
2022/03/17 04:07:28;;;;;;;30.23;23.50;;;;;;;7.56;86.84;153302.19;5029913;28;20772;-79
2022/03/17 04:10:06;;;;;;;34.57;24.50;;;;;;;7.34;87.87;153246.63;5033094;28;20474;-79
2022/03/17 04:12:42;;;;;;;36.47;25.30;;;;;;;7.39;88.54;153257.00;5008347;28;21001;-79
2022/03/17 04:15:19;;;;;;;34.07;24.03;;;;;;;7.34;88.13;153246.63;5034736;28;20909;-79
2022/03/17 04:17:54;;;;;;;36.70;25.43;;;;;;;7.26;88.90;153225.97;5029462;28;20443;-79
2022/03/17 04:20:30;;;;;;;32.87;24.57;;;;;;;7.20;89.34;153209.22;5027779;28;20876;-79
2022/03/17 04:23:06;;;;;;;33.10;23.07;;;;;;;7.39;88.03;153257.00;5032845;28;20455;-79
2022/03/17 04:25:42;;;;;;;33.37;23.90;;;;;;;7.36;88.21;153250.50;5008453;28;20456;-79
2022/03/17 04:28:18;;;;;;;35.50;26.43;;;;;;;7.37;87.86;153253.09;5024222;28;20471;-79
2022/03/17 04:30:55;;;;;;;35.47;25.77;;;;;;;7.31;87.78;153238.88;5024890;28;20439;-79
2022/03/17 04:33:31;;;;;;;32.23;24.37;;;;;;;7.34;87.87;153246.63;5010286;28;20546;-79
2022/03/17 04:36:10;;;;;;;34.20;26.00;;;;;;;7.32;87.75;153241.47;5013415;28;20497;-80
2022/03/17 04:38:45;;;;;;;32.90;25.33;;;;;;;7.31;88.37;153238.88;5027692;28;20431;-79
2022/03/17 04:41:21;;;;;;;32.67;25.87;;;;;;;7.19;88.39;153207.91;5008370;28;20451;-79
2022/03/17 04:43:57;;;;;;;34.70;27.07;;;;;;;7.08;88.93;153178.19;5022903;28;20509;-79
2022/03/17 04:46:34;;;;;;;36.90;27.93;;;;;;;6.99;89.81;153156.25;5030148;28;20487;-79
2022/03/17 04:49:10;;;;;;;41.57;30.60;;;;;;;7.05;89.28;153170.44;5014172;28;20459;-79
2022/03/17 04:51:45;;;;;;;34.70;27.07;;;;;;;7.06;89.49;153174.34;5041314;28;20452;-79
2022/03/17 04:54:21;;;;;;;34.70;25.90;;;;;;;6.98;89.65;153153.69;5024888;28;20456;-79
2022/03/17 04:56:59;;;;;;;37.93;25.63;;;;;;;7.05;89.42;153171.75;5011370;28;20913;-79
2022/03/17 04:59:35;;;;;;;33.07;25.03;;;;;;;7.15;89.54;153196.25;4994832;28;20527;-79
2022/03/17 05:02:13;;;;;;;36.00;26.80;;;;;;;7.24;88.62;153220.81;5024451;28;20456;-80
2022/03/17 05:04:51;;;;;;;38.83;28.30;;;;;;;7.10;89.11;153184.66;5026428;28;20858;-79
2022/03/17 05:07:28;;;;;;;35.10;26.13;;;;;;;7.14;89.03;153195.00;5010735;28;20456;-79
2022/03/17 05:10:04;;;;;;;38.20;25.60;;;;;;;7.09;88.83;153182.09;5010738;28;20469;-80
2022/03/17 05:12:40;;;;;;;35.97;26.80;;;;;;;7.05;89.82;153171.75;5035415;28;21090;-80
2022/03/17 05:15:16;;;;;;;32.40;24.40;;;;;;;7.34;88.27;153246.63;5010285;28;20858;-80
2022/03/17 05:17:53;;;;;;;34.50;25.60;;;;;;;7.14;88.85;153193.72;5034021;28;20452;-80
2022/03/17 05:20:29;;;;;;;34.73;24.47;;;;;;;7.11;89.19;153185.94;5006468;28;20535;-80
2022/03/17 05:23:05;;;;;;;35.00;25.87;;;;;;;6.95;90.04;153145.94;5032714;28;20555;-80
2022/03/17 05:25:42;;;;;;;34.37;24.20;;;;;;;7.04;89.39;153167.91;5025785;28;20488;-80
2022/03/17 05:28:18;;;;;;;33.17;24.67;;;;;;;6.94;90.60;153143.34;5008010;28;20559;-80
2022/03/17 05:30:53;;;;;;;34.90;26.27;;;;;;;7.05;90.09;153170.44;5009781;28;20485;-80
2022/03/17 05:33:31;;;;;;;31.80;24.60;;;;;;;7.27;88.09;153228.56;5026702;28;20465;-79
2022/03/17 05:36:06;;;;;;;32.83;25.07;;;;;;;7.28;87.88;153231.13;5011282;28;20838;-80
2022/03/17 05:38:42;;;;;;;36.80;27.57;;;;;;;7.30;87.71;153236.34;5025351;28;20443;-80
2022/03/17 05:41:18;;;;;;;36.80;27.27;;;;;;;7.29;87.85;153233.72;5032386;28;20449;-79
2022/03/17 05:43:53;;;;;;;35.40;26.07;;;;;;;7.17;88.17;153202.75;5004637;28;20445;-80
2022/03/17 05:46:29;;;;;;;33.63;24.50;;;;;;;7.22;88.85;153215.66;5010293;28;20480;-80
2022/03/17 05:49:06;;;;;;;36.40;26.37;;;;;;;7.34;87.62;153246.63;5028710;28;20471;-79
2022/03/17 05:51:41;;;;;;;31.53;24.50;;;;;;;7.15;88.67;153197.56;5008184;28;20563;-80
2022/03/17 05:54:17;;;;;;;32.27;23.07;;;;;;;7.26;88.11;153225.97;5008785;28;20461;-80
2022/03/17 05:56:53;;;;;;;32.70;24.53;;;;;;;7.21;87.86;153213.06;5008332;28;20452;-80
2022/03/17 05:59:28;;;;;;;35.90;25.87;;;;;;;7.13;88.52;153191.09;5008002;28;20524;-80
2022/03/17 06:02:07;;;;;;;36.07;25.77;;;;;;;7.23;88.09;153218.22;5015310;28;20943;-79
2022/03/17 06:04:44;;;;;;;34.70;26.97;;;;;;;7.12;88.75;153188.56;5026598;28;20452;-79
2022/03/17 06:07:21;;;;;;;34.60;25.83;;;;;;;6.98;89.55;153152.38;5005530;28;20846;-79
2022/03/17 06:09:58;;;;;;;35.50;27.00;;;;;;;6.93;90.61;153140.78;5039892;28;21066;-79
2022/03/17 06:12:34;;;;;;;35.07;26.13;;;;;;;6.92;90.90;153138.19;5018750;28;20506;-79
2022/03/17 06:15:11;;;;;;;32.40;24.80;;;;;;;7.17;89.62;153202.75;4991572;28;20452;-79
2022/03/17 06:17:49;;;;;;;39.10;25.90;;;;;;;7.02;89.43;153164.00;5008410;28;20464;-79
2022/03/17 06:20:27;;;;;;;35.43;25.40;;;;;;;7.18;89.27;153205.31;5021541;28;20935;-79
2022/03/17 06:23:05;;;;;;;33.97;23.40;;;;;;;7.15;89.20;153196.25;5013297;28;20452;-80
2022/03/17 06:25:41;;;;;;;31.93;24.27;;;;;;;7.01;89.54;153161.44;5022020;28;20440;-79
2022/03/17 06:28:18;;;;;;;36.17;26.70;;;;;;;7.10;89.52;153183.34;5016940;28;20550;-80
2022/03/17 06:30:54;;;;;;;34.03;24.50;;;;;;;7.12;90.24;153188.56;5007811;28;20563;-80
2022/03/17 06:33:30;;;;;;;34.80;25.60;;;;;;;7.08;89.98;153179.50;5005206;28;20445;-79
2022/03/17 06:36:07;;;;;;;38.17;28.50;;;;;;;7.18;88.97;153205.31;5033417;28;20943;-80
2022/03/17 06:38:43;;;;;;;33.60;25.60;;;;;;;7.15;90.23;153196.25;5006873;28;20452;-79
2022/03/17 06:41:19;;;;;;;34.50;26.80;;;;;;;7.05;90.96;153170.44;5010720;28;20464;-80
2022/03/17 06:43:54;;;;;;;37.00;26.47;;;;;;;7.03;90.48;153166.59;5010182;28;20558;-80
2022/03/17 06:46:30;;;;;;;34.80;25.97;;;;;;;7.13;90.50;153191.09;5033478;28;20483;-80
2022/03/17 06:49:06;;;;;;;35.53;26.20;;;;;;;7.12;90.26;153188.56;5008399;28;20492;-80
2022/03/17 06:51:43;;;;;;;33.73;25.30;;;;;;;7.03;90.32;153166.59;5031314;28;20543;-80
2022/03/17 06:54:18;;;;;;;36.33;26.13;;;;;;;7.11;89.71;153185.94;5009532;28;20934;-80
2022/03/17 06:56:54;;;;;;;34.50;25.07;;;;;;;7.09;90.23;153180.81;5007671;28;20452;-80
2022/03/17 06:59:30;;;;;;;36.63;27.03;;;;;;;7.10;91.96;153184.66;5025281;28;21066;-79
2022/03/17 07:02:06;;;;;;;38.20;28.30;;;;;;;7.14;92.30;153193.72;5036101;28;20432;-80
2022/03/17 07:04:41;;;;;;;33.87;25.83;;;;;;;7.14;91.87;153193.72;5004604;28;20951;-80
2022/03/17 07:07:18;;;;;;;37.07;27.97;;;;;;;7.15;93.08;153197.56;5021665;28;20440;-80
2022/03/17 07:09:54;;;;;;;36.10;26.37;;;;;;;7.15;94.46;153196.25;5012107;28;20575;-80
2022/03/17 07:12:29;;;;;;;33.90;28.03;;;;;;;7.16;94.05;153200.16;5010649;28;20443;-80
2022/03/17 07:15:06;;;;;;;35.60;27.60;;;;;;;7.21;94.25;153213.06;5006904;28;20637;-80
2022/03/17 07:17:42;;;;;;;35.63;27.60;;;;;;;7.23;94.53;153218.22;5006994;28;20448;-79
2022/03/17 07:20:19;;;;;;;41.70;28.63;;;;;;;7.24;92.47;153219.53;5003066;28;20460;-80
2022/03/17 07:22:56;;;;;;;35.63;26.47;;;;;;;7.26;91.74;153225.97;5025598;28;20471;-79
2022/03/17 07:25:32;;;;;;;36.73;25.53;;;;;;;7.28;91.09;153231.13;4993935;28;20518;-79
2022/03/17 07:28:07;;;;;;;35.20;26.93;;;;;;;7.33;91.33;153244.03;5005456;28;20436;-80
2022/03/17 07:30:43;;;;;;;31.40;23.80;;;;;;;7.39;92.02;153257.00;5007443;28;20480;-80
2022/03/17 07:33:19;;;;;;;33.93;27.27;;;;;;;7.41;92.62;153263.44;5005506;28;20894;-79
2022/03/17 07:35:55;;;;;;;38.83;26.83;;;;;;;7.48;92.30;153280.22;5006270;28;20447;-80
2022/03/17 07:38:31;;;;;;;35.50;26.57;;;;;;;7.52;93.94;153290.56;5023231;28;20449;-80
2022/03/17 07:41:07;;;;;;;37.07;28.57;;;;;;;7.56;94.78;153300.88;5033544;28;20479;-80
2022/03/17 07:43:43;;;;;;;36.97;26.17;;;;;;;7.60;94.06;153312.50;5002774;28;20457;-80
2022/03/17 07:46:45;;;;;;;77.47;33.60;;;;;;;7.72;93.18;153342.22;5009325;28;20976;-79
2022/03/17 07:49:42;;;;;;;33.30;25.80;;;;;;;7.72;93.46;153342.22;5026312;28;20476;-80
2022/03/17 07:52:18;;;;;;;36.30;27.40;;;;;;;7.73;95.64;153344.81;5034282;28;20445;-80
2022/03/17 07:54:56;;;;;;;40.17;28.00;;;;;;;7.74;95.05;153347.38;5023153;28;20452;-80
2022/03/17 07:57:32;;;;;;;39.33;27.10;;;;;;;7.80;95.92;153362.88;5032300;28;20448;-80
2022/03/17 08:00:11;;;;;;;39.57;27.40;;;;;;;7.86;96.61;153379.66;5024988;28;20551;-80
2022/03/17 08:02:50;;;;;;;34.63;26.67;;;;;;;8.18;94.00;153461.06;5009414;28;20531;-80
2022/03/17 08:05:26;;;;;;;36.23;26.10;;;;;;;8.19;92.98;153463.66;5013303;28;20455;-80
2022/03/17 08:08:02;;;;;;;34.87;27.80;;;;;;;8.14;92.54;153449.44;5023695;28;20467;-79
2022/03/17 08:10:39;;;;;;;38.40;29.47;;;;;;;8.32;91.48;153497.31;5015612;28;20567;-80
2022/03/17 08:13:15;;;;;;;36.93;26.87;;;;;;;8.46;90.84;153532.22;5023610;28;20445;-80
2022/03/17 08:15:51;;;;;;;36.83;28.40;;;;;;;8.24;90.34;153476.59;5012416;28;20456;-80
2022/03/17 08:18:27;;;;;;;33.13;25.33;;;;;;;8.25;91.41;153479.19;5007582;28;20462;-80
2022/03/17 08:21:02;;;;;;;38.13;27.10;;;;;;;8.14;91.87;153450.75;5025238;28;20444;-80
2022/03/17 08:23:38;;;;;;;35.87;28.13;;;;;;;8.23;91.12;153474.03;5031099;28;20452;-79
2022/03/17 08:26:16;;;;;;;37.17;27.37;;;;;;;8.39;90.70;153515.38;5008584;28;20448;-80
2022/03/17 08:28:52;;;;;;;37.20;27.27;;;;;;;8.32;90.77;153497.31;5031303;28;20453;-80
2022/03/17 08:31:28;;;;;;;34.20;25.77;;;;;;;8.27;91.61;153483.09;5009544;28;20984;-79
2022/03/17 08:34:04;;;;;;;39.13;29.00;;;;;;;8.28;92.13;153487.00;5010430;28;20436;-80
2022/03/17 08:36:39;;;;;;;33.33;25.23;;;;;;;8.32;91.54;153496.00;5027472;28;20961;-80
2022/03/17 08:39:16;;;;;;;35.33;27.20;;;;;;;8.31;92.26;153494.72;5027980;28;20444;-80
2022/03/17 08:41:53;;;;;;;37.20;27.80;;;;;;;8.34;93.93;153502.47;5025930;28;20443;-79
2022/03/17 08:44:29;;;;;;;34.43;26.63;;;;;;;8.37;93.12;153508.94;5008255;28;20935;-78
2022/03/17 08:49:58;;;;;;;36.00;28.50;;;;;;;8.45;93.11;153529.63;5008822;28;20567;-80
2022/03/17 08:52:34;;;;;;;35.97;28.77;;;;;;;8.48;93.52;153538.69;5036733;28;20445;-79
2022/03/17 08:55:10;;;;;;;35.90;28.30;;;;;;;8.53;93.41;153551.59;5029511;28;20447;-79
2022/03/17 08:57:49;;;;;;;40.60;27.70;;;;;;;8.55;93.04;153556.75;5029690;28;20459;-79
2022/03/17 09:00:25;;;;;;;39.63;29.53;;;;;;;8.55;93.10;153555.50;5028187;28;20452;-79
2022/03/17 09:03:01;;;;;;;42.67;31.60;;;;;;;8.54;92.72;153552.91;5019381;28;20796;-79
2022/03/17 09:05:37;;;;;;;34.33;27.10;;;;;;;8.60;93.86;153567.13;5018202;28;20943;-79
2022/03/17 09:08:12;;;;;;;35.90;27.20;;;;;;;8.60;91.34;153568.44;4991315;28;20460;-79
2022/03/17 09:10:49;;;;;;;41.70;31.23;;;;;;;8.65;92.01;153580.03;5004765;28;20481;-79
2022/03/17 09:13:28;;;;;;;38.00;29.27;;;;;;;8.68;92.62;153587.81;5015586;28;20460;-79
2022/03/17 09:16:05;;;;;;;41.63;29.83;;;;;;;8.69;91.60;153591.66;5012489;28;20453;-79
2022/03/17 09:18:42;;;;;;;39.30;30.10;;;;;;;8.70;92.15;153592.97;5031515;28;20457;-79
2022/03/17 09:21:18;;;;;;;35.67;26.90;;;;;;;8.73;93.88;153600.72;5028408;28;20823;-79
2022/03/17 09:23:53;;;;;;;36.17;27.67;;;;;;;8.74;92.86;153603.28;5023439;28;20440;-79
2022/03/17 09:26:29;;;;;;;37.50;28.90;;;;;;;8.76;92.98;153608.50;5012968;28;20449;-79
2022/03/17 09:29:06;;;;;;;40.13;26.83;;;;;;;8.80;93.42;153618.81;5016568;28;20445;-79
2022/03/17 09:31:41;;;;;;;40.20;28.90;;;;;;;8.81;93.43;153622.72;5009117;28;20460;-79
2022/03/17 09:34:17;;;;;;;35.73;26.53;;;;;;;8.87;92.82;153636.94;5025558;28;20524;-79
2022/03/17 09:36:52;;;;;;;37.00;28.43;;;;;;;8.87;92.35;153638.22;5009913;28;20452;-79
2022/03/17 09:39:44;;;;;;;38.70;29.60;;;;;;;8.93;91.76;153652.44;5028641;28;20456;-79
2022/03/17 09:42:21;;;;;;;35.87;28.37;;;;;;;8.98;93.15;153665.34;5004134;28;20449;-80
2022/03/17 09:44:58;;;;;;;40.17;27.97;;;;;;;9.00;93.67;153670.56;5008944;28;20452;-79
2022/03/17 09:47:36;;;;;;;34.63;27.47;;;;;;;9.02;92.14;153675.72;5027992;28;20998;-80
2022/03/17 09:50:14;;;;;;;39.10;28.63;;;;;;;9.07;93.23;153688.66;5007422;28;20971;-80
2022/03/17 09:52:49;;;;;;;37.60;29.07;;;;;;;9.09;93.65;153693.81;5029177;28;20444;-80
2022/03/17 09:55:25;;;;;;;38.83;28.30;;;;;;;9.16;93.17;153711.91;4995462;28;20452;-80
2022/03/17 09:58:01;;;;;;;37.37;28.53;;;;;;;9.19;92.74;153720.97;5030164;28;20466;-79
2022/03/17 10:00:52;;;;;;;35.97;26.80;;;;;;;9.23;92.95;153730.03;5025306;28;20456;-80
2022/03/17 10:03:29;;;;;;;36.40;27.43;;;;;;;9.29;92.52;153744.28;5009857;28;20480;-80
2022/03/17 10:06:05;;;;;;;37.40;28.37;;;;;;;9.35;92.34;153761.06;5006319;28;20803;-80
2022/03/17 10:08:40;;;;;;;40.03;29.07;;;;;;;9.40;92.11;153774.00;5005294;28;20536;-80
2022/03/17 10:11:16;;;;;;;40.60;29.90;;;;;;;9.47;92.99;153792.13;5032794;28;20886;-80
2022/03/17 10:13:54;;;;;;;38.40;27.67;;;;;;;9.50;92.26;153799.91;5009241;28;20455;-80
2022/03/17 10:16:31;;;;;;;39.50;30.50;;;;;;;9.55;91.56;153812.84;5023422;28;21031;-80
2022/03/17 10:19:08;;;;;;;37.80;28.10;;;;;;;9.57;90.63;153816.69;5010392;28;20433;-79
2022/03/17 10:21:43;;;;;;;40.23;29.00;;;;;;;9.59;90.23;153821.88;5002807;28;20484;-79
2022/03/17 10:24:19;;;;;;;35.90;26.70;;;;;;;9.58;90.03;153820.56;5023554;28;20484;-79
2022/03/17 10:26:54;;;;;;;37.30;28.10;;;;;;;9.56;89.82;153815.41;5013058;28;20456;-79
2022/03/17 10:29:29;;;;;;;35.70;25.80;;;;;;;9.57;89.45;153818.00;5014597;28;20935;-79
2022/03/17 10:32:07;;;;;;;36.77;25.87;;;;;;;9.63;90.31;153832.25;5010929;28;20510;-80
2022/03/17 10:34:55;;;;;;;39.87;28.50;;;;;;;9.68;90.07;153846.47;4993955;28;20484;-79
2022/03/17 10:37:31;;;;;;;33.00;25.80;;;;;;;9.70;90.84;153851.63;5010989;28;20425;-79
2022/03/17 10:40:10;;;;;;;37.67;25.93;;;;;;;9.68;90.12;153846.47;5032388;28;20460;-80
2022/03/17 10:42:46;;;;;;;37.07;26.47;;;;;;;9.71;90.18;153854.25;5008198;28;20452;-79
2022/03/17 10:45:29;;;;;;;33.60;27.00;;;;;;;9.78;90.45;153872.34;5031648;28;20449;-81
2022/03/17 10:48:08;;;;;;;34.30;27.30;;;;;;;9.79;89.99;153874.91;5030429;28;20845;-81
2022/03/17 10:50:44;;;;;;;35.87;26.80;;;;;;;9.80;88.62;153876.22;5026027;28;20816;-80
2022/03/17 10:53:27;;;;;;;36.00;26.90;;;;;;;9.78;88.84;153872.34;5007858;28;20459;-80
2022/03/17 10:56:11;;;;;;;34.93;27.17;;;;;;;9.88;89.82;153895.59;5031512;28;20460;-81
2022/03/17 10:58:49;;;;;;;33.73;25.87;;;;;;;9.95;90.73;153913.75;5004674;28;20444;-80
2022/03/17 11:01:36;;;;;;;36.20;27.20;;;;;;;10.03;89.81;153934.47;5011832;28;20452;-80
2022/03/17 11:04:13;;;;;;;35.87;28.37;;;;;;;10.03;90.23;153934.47;4988130;28;20445;-80
2022/03/17 11:06:48;;;;;;;31.20;25.57;;;;;;;10.12;90.94;153959.09;5007296;28;20444;-81
2022/03/17 11:09:24;;;;;;;34.20;26.40;;;;;;;10.10;90.80;153953.88;5003844;28;20449;-81
2022/03/17 11:12:00;;;;;;;32.57;26.10;;;;;;;10.09;90.92;153951.25;5008781;28;20474;-80
2022/03/17 11:14:41;;;;;;;35.50;23.83;;;;;;;10.11;90.30;153955.19;5033294;28;20448;-80
2022/03/17 11:17:21;;;;;;;33.27;23.77;;;;;;;10.13;90.50;153960.41;4989478;28;20449;-80
2022/03/17 11:20:05;;;;;;;36.43;26.57;;;;;;;10.13;90.06;153961.69;5007095;28;20448;-80
2022/03/17 11:22:40;;;;;;;37.17;26.90;;;;;;;10.15;89.56;153966.88;4993642;28;21010;-80
2022/03/17 11:25:19;;;;;;;34.27;25.47;;;;;;;10.14;89.38;153963.00;4993768;28;20736;-81
2022/03/17 11:27:58;;;;;;;34.93;26.13;;;;;;;10.18;89.07;153973.34;5016973;28;20787;-80
2022/03/17 11:30:42;;;;;;;39.73;27.10;;;;;;;10.17;88.35;153970.72;5007012;28;20828;-80
2022/03/17 11:33:22;;;;;;;36.37;26.50;;;;;;;10.24;87.56;153988.88;5006475;28;20485;-81
2022/03/17 11:36:01;;;;;;;36.63;27.40;;;;;;;10.14;88.71;153963.00;4990222;28;20460;-80
2022/03/17 11:38:38;;;;;;;36.57;28.53;;;;;;;10.12;88.54;153957.72;4990612;28;20531;-81
2022/03/17 11:41:15;;;;;;;44.00;26.80;;;;;;;10.20;89.19;153978.50;5009060;28;20877;-80
2022/03/17 11:44:04;;;;;;;34.43;25.20;;;;;;;10.15;91.05;153965.56;5032234;28;20447;-80
2022/03/17 11:46:45;;;;;;;34.70;25.70;;;;;;;10.18;90.84;153974.63;5014314;28;20833;-81
2022/03/17 11:49:26;;;;;;;38.00;26.37;;;;;;;10.23;92.54;153986.28;5027988;28;20539;-81
2022/03/17 11:52:07;;;;;;;36.17;25.70;;;;;;;10.26;91.93;153995.34;5027417;28;20452;-80
2022/03/17 11:54:42;;;;;;;33.53;25.97;;;;;;;10.29;92.62;154003.13;5029517;28;20447;-81
2022/03/17 11:57:18;;;;;;;34.90;25.20;;;;;;;10.30;91.66;154004.38;5035220;28;20455;-81
2022/03/17 11:59:55;;;;;;;36.00;29.27;;;;;;;10.28;92.29;154000.50;5009397;28;20471;-80
2022/03/17 12:02:31;;;;;;;32.90;25.50;;;;;;;10.32;95.31;154010.91;5037456;28;20788;-80
2022/03/17 12:05:17;;;;;;;29.57;22.90;;;;;;;10.30;97.77;154004.38;5027935;28;20554;-80
2022/03/17 12:07:59;;;;;;;35.53;26.07;;;;;;;10.21;96.25;153981.09;5031303;28;20537;-80
2022/03/17 12:11:05;;;;;;;32.60;25.90;;;;;;;10.21;100.00;153981.09;5035375;28;20538;-80